sensor_id;sensor_type;location;lat;lon;timestamp;pressure;altitude;pressure_sealevel;temperature;humidity
59951;BME280;45812;53.540;9.774;2024-02-21T00:00:27;101802.94;;;8.91;100.00
59951;BME280;45812;53.540;9.774;2024-02-21T00:02:53;101793.41;;;8.88;100.00
59951;BME280;45812;53.540;9.774;2024-02-21T00:05:18;101818.16;;;8.89;100.00
59951;BME280;45812;53.540;9.774;2024-02-21T00:07:43;101794.53;;;8.86;100.00
59951;BME280;45812;53.540;9.774;2024-02-21T00:10:08;101786.44;;;8.87;100.00
59951;BME280;45812;53.540;9.774;2024-02-21T00:12:34;101785.44;;;8.88;100.00
59951;BME280;45812;53.540;9.774;2024-02-21T00:14:59;101788.09;;;8.88;100.00
59951;BME280;45812;53.540;9.774;2024-02-21T00:17:25;101783.78;;;8.87;100.00
59951;BME280;45812;53.540;9.774;2024-02-21T00:19:51;101780.00;;;8.90;100.00
59951;BME280;45812;53.540;9.774;2024-02-21T00:22:16;101774.47;;;8.93;100.00
59951;BME280;45812;53.540;9.774;2024-02-21T00:24:41;101768.28;;;8.92;100.00
59951;BME280;45812;53.540;9.774;2024-02-21T00:27:07;101753.59;;;8.88;100.00
59951;BME280;45812;53.540;9.774;2024-02-21T00:29:32;101758.19;;;8.86;100.00
59951;BME280;45812;53.540;9.774;2024-02-21T00:31:57;101772.56;;;8.84;100.00
59951;BME280;45812;53.540;9.774;2024-02-21T00:34:22;101769.78;;;8.85;100.00
59951;BME280;45812;53.540;9.774;2024-02-21T00:36:48;101749.38;;;8.86;100.00
59951;BME280;45812;53.540;9.774;2024-02-21T00:39:13;101763.25;;;8.89;100.00
59951;BME280;45812;53.540;9.774;2024-02-21T00:41:38;101749.00;;;8.90;100.00
59951;BME280;45812;53.540;9.774;2024-02-21T00:44:03;101740.06;;;8.91;100.00
59951;BME280;45812;53.540;9.774;2024-02-21T00:46:30;101751.66;;;8.90;100.00
59951;BME280;45812;53.540;9.774;2024-02-21T00:48:56;101745.13;;;8.94;100.00
59951;BME280;45812;53.540;9.774;2024-02-21T00:51:21;101749.59;;;8.94;100.00
59951;BME280;45812;53.540;9.774;2024-02-21T00:53:46;101741.72;;;8.92;100.00
59951;BME280;45812;53.540;9.774;2024-02-21T00:56:11;101754.06;;;8.93;100.00
59951;BME280;45812;53.540;9.774;2024-02-21T00:58:37;101748.00;;;8.91;100.00
59951;BME280;45812;53.540;9.774;2024-02-21T01:01:02;101731.84;;;8.94;100.00
59951;BME280;45812;53.540;9.774;2024-02-21T01:03:28;101723.88;;;8.94;100.00
59951;BME280;45812;53.540;9.774;2024-02-21T01:05:53;101721.94;;;8.96;100.00
59951;BME280;45812;53.540;9.774;2024-02-21T01:08:18;101718.56;;;8.94;100.00
59951;BME280;45812;53.540;9.774;2024-02-21T01:10:44;101707.13;;;8.94;100.00
59951;BME280;45812;53.540;9.774;2024-02-21T01:13:09;101705.16;;;8.96;100.00
59951;BME280;45812;53.540;9.774;2024-02-21T01:15:34;101731.72;;;8.96;100.00
59951;BME280;45812;53.540;9.774;2024-02-21T01:18:00;101722.44;;;8.90;100.00
59951;BME280;45812;53.540;9.774;2024-02-21T01:20:25;101710.13;;;8.89;100.00
59951;BME280;45812;53.540;9.774;2024-02-21T01:22:51;101711.09;;;8.88;100.00
59951;BME280;45812;53.540;9.774;2024-02-21T01:25:16;101717.41;;;8.87;100.00
59951;BME280;45812;53.540;9.774;2024-02-21T01:27:41;101736.09;;;8.86;100.00
59951;BME280;45812;53.540;9.774;2024-02-21T01:30:07;101697.84;;;8.88;100.00
59951;BME280;45812;53.540;9.774;2024-02-21T01:32:32;101717.41;;;8.87;100.00
59951;BME280;45812;53.540;9.774;2024-02-21T01:34:58;101696.41;;;8.84;100.00
59951;BME280;45812;53.540;9.774;2024-02-21T01:37:23;101698.94;;;8.86;100.00
59951;BME280;45812;53.540;9.774;2024-02-21T01:39:49;101677.25;;;8.80;100.00
59951;BME280;45812;53.540;9.774;2024-02-21T01:42:14;101691.16;;;8.73;100.00
59951;BME280;45812;53.540;9.774;2024-02-21T01:44:39;101671.56;;;8.64;100.00
59951;BME280;45812;53.540;9.774;2024-02-21T01:47:05;101673.63;;;8.61;100.00
59951;BME280;45812;53.540;9.774;2024-02-21T01:49:30;101677.25;;;8.60;100.00
59951;BME280;45812;53.540;9.774;2024-02-21T01:51:56;101658.94;;;8.57;100.00
59951;BME280;45812;53.540;9.774;2024-02-21T01:54:21;101654.69;;;8.54;100.00
59951;BME280;45812;53.540;9.774;2024-02-21T01:56:47;101675.22;;;8.52;100.00
59951;BME280;45812;53.540;9.774;2024-02-21T01:59:13;101648.69;;;8.52;100.00
59951;BME280;45812;53.540;9.774;2024-02-21T02:01:40;101629.97;;;8.54;100.00
59951;BME280;45812;53.540;9.774;2024-02-21T02:04:06;101632.63;;;8.54;100.00
59951;BME280;45812;53.540;9.774;2024-02-21T02:06:32;101631.47;;;8.46;100.00
59951;BME280;45812;53.540;9.774;2024-02-21T02:08:58;101619.09;;;8.36;100.00
59951;BME280;45812;53.540;9.774;2024-02-21T02:11:23;101608.00;;;8.42;100.00
59951;BME280;45812;53.540;9.774;2024-02-21T02:13:48;101585.22;;;8.39;100.00
59951;BME280;45812;53.540;9.774;2024-02-21T02:16:13;101584.97;;;8.42;100.00
59951;BME280;45812;53.540;9.774;2024-02-21T02:18:39;101567.63;;;8.38;100.00
59951;BME280;45812;53.540;9.774;2024-02-21T02:21:10;101550.97;;;8.36;100.00
59951;BME280;45812;53.540;9.774;2024-02-21T02:23:39;101543.97;;;8.35;100.00
59951;BME280;45812;53.540;9.774;2024-02-21T02:26:05;101535.53;;;8.30;100.00
59951;BME280;45812;53.540;9.774;2024-02-21T02:28:32;101515.00;;;8.23;100.00
59951;BME280;45812;53.540;9.774;2024-02-21T02:30:57;101499.84;;;8.13;100.00
59951;BME280;45812;53.540;9.774;2024-02-21T02:33:22;101508.47;;;8.06;100.00
59951;BME280;45812;53.540;9.774;2024-02-21T02:35:48;101503.41;;;8.03;100.00
59951;BME280;45812;53.540;9.774;2024-02-21T02:38:13;101512.91;;;8.05;100.00
59951;BME280;45812;53.540;9.774;2024-02-21T02:40:39;101510.72;;;8.10;100.00
59951;BME280;45812;53.540;9.774;2024-02-21T02:43:05;101511.16;;;8.15;100.00
59951;BME280;45812;53.540;9.774;2024-02-21T02:45:31;101519.72;;;8.19;100.00
59951;BME280;45812;53.540;9.774;2024-02-21T02:47:56;101502.69;;;8.22;100.00
59951;BME280;45812;53.540;9.774;2024-02-21T02:50:25;101498.25;;;8.22;100.00
59951;BME280;45812;53.540;9.774;2024-02-21T02:52:50;101503.84;;;8.29;100.00
59951;BME280;45812;53.540;9.774;2024-02-21T02:55:16;101513.13;;;8.34;100.00
59951;BME280;45812;53.540;9.774;2024-02-21T02:57:41;101535.78;;;8.38;100.00
59951;BME280;45812;53.540;9.774;2024-02-21T03:00:07;101558.56;;;8.41;100.00
59951;BME280;45812;53.540;9.774;2024-02-21T03:02:33;101549.34;;;8.45;100.00
59951;BME280;45812;53.540;9.774;2024-02-21T03:04:58;101558.88;;;8.47;100.00
59951;BME280;45812;53.540;9.774;2024-02-21T03:07:25;101556.09;;;8.49;100.00
59951;BME280;45812;53.540;9.774;2024-02-21T03:09:50;101565.44;;;8.53;100.00
59951;BME280;45812;53.540;9.774;2024-02-21T03:12:15;101569.91;;;8.53;100.00
59951;BME280;45812;53.540;9.774;2024-02-21T03:14:49;101542.41;;;8.54;100.00
59951;BME280;45812;53.540;9.774;2024-02-21T03:17:14;101557.13;;;8.58;100.00
59951;BME280;45812;53.540;9.774;2024-02-21T03:19:39;101556.28;;;8.57;100.00
59951;BME280;45812;53.540;9.774;2024-02-21T03:22:05;101556.16;;;8.59;100.00
59951;BME280;45812;53.540;9.774;2024-02-21T03:24:31;101567.47;;;8.61;100.00
59951;BME280;45812;53.540;9.774;2024-02-21T03:26:56;101572.06;;;8.59;100.00
59951;BME280;45812;53.540;9.774;2024-02-21T03:29:21;101556.16;;;8.59;100.00
59951;BME280;45812;53.540;9.774;2024-02-21T03:31:47;101562.44;;;8.58;100.00
59951;BME280;45812;53.540;9.774;2024-02-21T03:34:12;101568.59;;;8.58;100.00
59951;BME280;45812;53.540;9.774;2024-02-21T03:36:37;101552.13;;;8.64;100.00
59951;BME280;45812;53.540;9.774;2024-02-21T03:39:02;101566.09;;;8.66;100.00
59951;BME280;45812;53.540;9.774;2024-02-21T03:41:28;101566.94;;;8.67;100.00
59951;BME280;45812;53.540;9.774;2024-02-21T03:43:54;101563.31;;;8.68;100.00
59951;BME280;45812;53.540;9.774;2024-02-21T03:46:19;101547.66;;;8.65;100.00
59951;BME280;45812;53.540;9.774;2024-02-21T03:48:44;101552.81;;;8.66;100.00
59951;BME280;45812;53.540;9.774;2024-02-21T03:51:10;101538.72;;;8.66;100.00
59951;BME280;45812;53.540;9.774;2024-02-21T03:53:36;101544.03;;;8.66;100.00
59951;BME280;45812;53.540;9.774;2024-02-21T03:56:04;101552.25;;;8.63;100.00
59951;BME280;45812;53.540;9.774;2024-02-21T03:58:30;101549.75;;;8.61;100.00
59951;BME280;45812;53.540;9.774;2024-02-21T04:00:55;101569.56;;;8.57;100.00
59951;BME280;45812;53.540;9.774;2024-02-21T04:03:21;101542.69;;;8.50;100.00
59951;BME280;45812;53.540;9.774;2024-02-21T04:05:46;101540.44;;;8.46;100.00
59951;BME280;45812;53.540;9.774;2024-02-21T04:08:11;101546.72;;;8.45;100.00
59951;BME280;45812;53.540;9.774;2024-02-21T04:10:36;101542.25;;;8.45;100.00
59951;BME280;45812;53.540;9.774;2024-02-21T04:13:02;101532.47;;;8.46;100.00
59951;BME280;45812;53.540;9.774;2024-02-21T04:15:27;101532.34;;;8.47;100.00
59951;BME280;45812;53.540;9.774;2024-02-21T04:17:53;101540.69;;;8.43;100.00
59951;BME280;45812;53.540;9.774;2024-02-21T04:20:18;101529.66;;;8.38;100.00
59951;BME280;45812;53.540;9.774;2024-02-21T04:22:43;101528.66;;;8.39;100.00
59951;BME280;45812;53.540;9.774;2024-02-21T04:25:09;101530.47;;;8.38;100.00
59951;BME280;45812;53.540;9.774;2024-02-21T04:27:36;101522.53;;;8.38;100.00
59951;BME280;45812;53.540;9.774;2024-02-21T04:30:01;101515.78;;;8.34;100.00
59951;BME280;45812;53.540;9.774;2024-02-21T04:32:26;101528.31;;;8.32;100.00
59951;BME280;45812;53.540;9.774;2024-02-21T04:34:52;101536.25;;;8.32;100.00
59951;BME280;45812;53.540;9.774;2024-02-21T04:37:18;101521.06;;;8.34;100.00
59951;BME280;45812;53.540;9.774;2024-02-21T04:39:43;101511.41;;;8.33;100.00
59951;BME280;45812;53.540;9.774;2024-02-21T04:42:08;101515.03;;;8.32;100.00
59951;BME280;45812;53.540;9.774;2024-02-21T04:44:34;101504.13;;;8.26;100.00
59951;BME280;45812;53.540;9.774;2024-02-21T04:46:59;101512.22;;;8.24;100.00
59951;BME280;45812;53.540;9.774;2024-02-21T04:49:24;101510.78;;;8.20;100.00
59951;BME280;45812;53.540;9.774;2024-02-21T04:51:50;101516.94;;;8.20;100.00
59951;BME280;45812;53.540;9.774;2024-02-21T04:54:15;101502.84;;;8.20;100.00
59951;BME280;45812;53.540;9.774;2024-02-21T04:56:40;101510.06;;;8.18;100.00
59951;BME280;45812;53.540;9.774;2024-02-21T04:59:05;101518.53;;;8.12;100.00
59951;BME280;45812;53.540;9.774;2024-02-21T05:01:31;101509.34;;;8.16;100.00
59951;BME280;45812;53.540;9.774;2024-02-21T05:03:56;101515.63;;;8.15;100.00
59951;BME280;45812;53.540;9.774;2024-02-21T05:06:21;101505.97;;;8.14;100.00
59951;BME280;45812;53.540;9.774;2024-02-21T05:08:46;101512.97;;;8.15;100.00
59951;BME280;45812;53.540;9.774;2024-02-21T05:11:12;101504.31;;;8.13;100.00
59951;BME280;45812;53.540;9.774;2024-02-21T05:13:38;101512.41;;;8.11;100.00
59951;BME280;45812;53.540;9.774;2024-02-21T05:16:03;101492.84;;;8.12;100.00
59951;BME280;45812;53.540;9.774;2024-02-21T05:18:28;101501.38;;;8.16;100.00
59951;BME280;45812;53.540;9.774;2024-02-21T05:20:54;101490.06;;;8.14;100.00
59951;BME280;45812;53.540;9.774;2024-02-21T05:23:19;101496.09;;;8.16;100.00
59951;BME280;45812;53.540;9.774;2024-02-21T05:25:44;101507.66;;;8.15;100.00
59951;BME280;45812;53.540;9.774;2024-02-21T05:28:09;101505.97;;;8.14;100.00
59951;BME280;45812;53.540;9.774;2024-02-21T05:30:35;101489.63;;;8.09;100.00
59951;BME280;45812;53.540;9.774;2024-02-21T05:33:06;101503.16;;;8.06;100.00
59951;BME280;45812;53.540;9.774;2024-02-21T05:35:32;101486.41;;;8.05;100.00
59951;BME280;45812;53.540;9.774;2024-02-21T05:37:58;101484.34;;;8.09;100.00
59951;BME280;45812;53.540;9.774;2024-02-21T05:40:24;101485.03;;;8.11;100.00
59951;BME280;45812;53.540;9.774;2024-02-21T05:42:50;101482.53;;;8.09;100.00
59951;BME280;45812;53.540;9.774;2024-02-21T05:45:17;101492.28;;;8.09;100.00
59951;BME280;45812;53.540;9.774;2024-02-21T05:47:42;101478.75;;;8.12;100.00
59951;BME280;45812;53.540;9.774;2024-02-21T05:50:07;101483.09;;;8.13;100.00
59951;BME280;45812;53.540;9.774;2024-02-21T05:52:33;101478.75;;;8.12;100.00
59951;BME280;45812;53.540;9.774;2024-02-21T05:54:59;101477.09;;;8.11;100.00
59951;BME280;45812;53.540;9.774;2024-02-21T05:57:24;101479.72;;;8.11;100.00
59951;BME280;45812;53.540;9.774;2024-02-21T05:59:49;101474.44;;;8.11;100.00
59951;BME280;45812;53.540;9.774;2024-02-21T06:02:14;101489.50;;;8.10;100.00
59951;BME280;45812;53.540;9.774;2024-02-21T06:04:40;101487.44;;;8.14;100.00
59951;BME280;45812;53.540;9.774;2024-02-21T06:07:05;101490.06;;;8.14;100.00
59951;BME280;45812;53.540;9.774;2024-02-21T06:09:30;101491.75;;;8.15;100.00
59951;BME280;45812;53.540;9.774;2024-02-21T06:11:56;101481.28;;;8.13;100.00
59951;BME280;45812;53.540;9.774;2024-02-21T06:14:22;101480.72;;;8.10;100.00
59951;BME280;45812;53.540;9.774;2024-02-21T06:16:47;101486.59;;;8.13;100.00
59951;BME280;45812;53.540;9.774;2024-02-21T06:19:12;101488.25;;;8.14;100.00
59951;BME280;45812;53.540;9.774;2024-02-21T06:21:37;101495.50;;;8.12;100.00
59951;BME280;45812;53.540;9.774;2024-02-21T06:24:03;101499.72;;;8.15;100.00
59951;BME280;45812;53.540;9.774;2024-02-21T06:26:29;101485.75;;;8.13;100.00
59951;BME280;45812;53.540;9.774;2024-02-21T06:28:54;101484.50;;;8.17;100.00
59951;BME280;45812;53.540;9.774;2024-02-21T06:31:19;101484.28;;;8.20;100.00
59951;BME280;45812;53.540;9.774;2024-02-21T06:33:44;101488.47;;;8.23;100.00
59951;BME280;45812;53.540;9.774;2024-02-21T06:36:09;101489.19;;;8.25;100.00
59951;BME280;45812;53.540;9.774;2024-02-21T06:38:35;101479.69;;;8.22;100.00
59951;BME280;45812;53.540;9.774;2024-02-21T06:41:00;101483.88;;;8.25;100.00
59951;BME280;45812;53.540;9.774;2024-02-21T06:43:27;101479.13;;;8.28;100.00
59951;BME280;45812;53.540;9.774;2024-02-21T06:45:52;101486.38;;;8.26;100.00
59951;BME280;45812;53.540;9.774;2024-02-21T06:48:19;101482.31;;;8.22;100.00
59951;BME280;45812;53.540;9.774;2024-02-21T06:50:44;101494.03;;;8.19;100.00
59951;BME280;45812;53.540;9.774;2024-02-21T06:53:09;101481.75;;;8.18;100.00
59951;BME280;45812;53.540;9.774;2024-02-21T06:55:35;101495.00;;;8.18;100.00
59951;BME280;45812;53.540;9.774;2024-02-21T06:58:00;101478.84;;;8.22;100.00
59951;BME280;45812;53.540;9.774;2024-02-21T07:00:27;101482.47;;;8.20;100.00
59951;BME280;45812;53.540;9.774;2024-02-21T07:02:52;101483.31;;;8.21;100.00
59951;BME280;45812;53.540;9.774;2024-02-21T07:05:18;101491.25;;;8.21;100.00
59951;BME280;45812;53.540;9.774;2024-02-21T07:07:43;101491.00;;;8.24;100.00
59951;BME280;45812;53.540;9.774;2024-02-21T07:10:08;101497.00;;;8.26;100.00
59951;BME280;45812;53.540;9.774;2024-02-21T07:12:34;101483.59;;;8.28;100.00
59951;BME280;45812;53.540;9.774;2024-02-21T07:15:00;101492.53;;;8.27;100.00
59951;BME280;45812;53.540;9.774;2024-02-21T07:17:26;101496.88;;;8.28;100.00
59951;BME280;45812;53.540;9.774;2024-02-21T07:19:51;101491.44;;;8.29;100.00
59951;BME280;45812;53.540;9.774;2024-02-21T07:22:16;101494.09;;;8.29;100.00
59951;BME280;45812;53.540;9.774;2024-02-21T07:24:41;101502.75;;;8.31;100.00
59951;BME280;45812;53.540;9.774;2024-02-21T07:27:07;101508.06;;;8.31;100.00
59951;BME280;45812;53.540;9.774;2024-02-21T07:29:32;101509.88;;;8.31;100.00
59951;BME280;45812;53.540;9.774;2024-02-21T07:31:57;101502.75;;;8.31;100.00
59951;BME280;45812;53.540;9.774;2024-02-21T07:34:22;101497.44;;;8.31;100.00
59951;BME280;45812;53.540;9.774;2024-02-21T07:36:48;101504.44;;;8.32;100.00
59951;BME280;45812;53.540;9.774;2024-02-21T07:39:13;101498.28;;;8.32;100.00
59951;BME280;45812;53.540;9.774;2024-02-21T07:41:38;101508.88;;;8.32;100.00
59951;BME280;45812;53.540;9.774;2024-02-21T07:44:05;101498.28;;;8.32;100.00
59951;BME280;45812;53.540;9.774;2024-02-21T07:46:30;101495.75;;;8.30;100.00
59951;BME280;45812;53.540;9.774;2024-02-21T07:48:55;101490.19;;;8.33;100.00
59951;BME280;45812;53.540;9.774;2024-02-21T07:51:21;101495.16;;;8.38;100.00
59951;BME280;45812;53.540;9.774;2024-02-21T07:53:46;101492.50;;;8.38;100.00
59951;BME280;45812;53.540;9.774;2024-02-21T07:56:12;101493.47;;;8.37;100.00
59951;BME280;45812;53.540;9.774;2024-02-21T07:58:40;101505.41;;;8.31;100.00
59951;BME280;45812;53.540;9.774;2024-02-21T08:01:05;101506.00;;;8.35;100.00
59951;BME280;45812;53.540;9.774;2024-02-21T08:03:30;101500.69;;;8.35;100.00
59951;BME280;45812;53.540;9.774;2024-02-21T08:05:56;101502.97;;;8.39;100.00
59951;BME280;45812;53.540;9.774;2024-02-21T08:08:21;101508.47;;;8.47;100.00
59951;BME280;45812;53.540;9.774;2024-02-21T08:10:48;101498.41;;;8.51;100.00
59951;BME280;45812;53.540;9.774;2024-02-21T08:13:13;101496.75;;;8.50;100.00
59951;BME280;45812;53.540;9.774;2024-02-21T08:15:38;101493.09;;;8.51;100.00
59951;BME280;45812;53.540;9.774;2024-02-21T08:18:05;101495.38;;;8.56;100.00
59951;BME280;45812;53.540;9.774;2024-02-21T08:20:30;101492.59;;;8.57;100.00
59951;BME280;45812;53.540;9.774;2024-02-21T08:22:55;101495.25;;;8.57;100.00
59951;BME280;45812;53.540;9.774;2024-02-21T08:25:21;101490.66;;;8.59;100.00
59951;BME280;45812;53.540;9.774;2024-02-21T08:27:46;101488.00;;;8.59;100.00
59951;BME280;45812;53.540;9.774;2024-02-21T08:30:11;101493.56;;;8.56;100.00
59951;BME280;45812;53.540;9.774;2024-02-21T08:32:37;101487.16;;;8.59;100.00
59951;BME280;45812;53.540;9.774;2024-02-21T08:35:02;101482.13;;;8.56;100.00
59951;BME280;45812;53.540;9.774;2024-02-21T08:37:28;101490.19;;;8.54;100.00
59951;BME280;45812;53.540;9.774;2024-02-21T08:39:53;101494.22;;;8.48;100.00
59951;BME280;45812;53.540;9.774;2024-02-21T08:42:19;101482.13;;;8.35;100.00
59951;BME280;45812;53.540;9.774;2024-02-21T08:44:44;101492.41;;;8.28;100.00
59951;BME280;45812;53.540;9.774;2024-02-21T08:47:10;101493.19;;;8.19;100.00
59951;BME280;45812;53.540;9.774;2024-02-21T08:49:35;101481.16;;;8.15;100.00
59951;BME280;45812;53.540;9.774;2024-02-21T08:52:01;101479.94;;;8.19;100.00
59951;BME280;45812;53.540;9.774;2024-02-21T08:54:27;101468.38;;;8.20;100.00
59951;BME280;45812;53.540;9.774;2024-02-21T08:56:54;101481.75;;;8.18;100.00
59951;BME280;45812;53.540;9.774;2024-02-21T08:59:19;101474.63;;;8.19;100.00
59951;BME280;45812;53.540;9.774;2024-02-21T09:01:45;101478.63;;;8.13;100.00
59951;BME280;45812;53.540;9.774;2024-02-21T09:04:10;101474.16;;;8.14;100.00
59951;BME280;45812;53.540;9.774;2024-02-21T09:06:35;101470.88;;;8.22;100.00
59951;BME280;45812;53.540;9.774;2024-02-21T09:09:04;101471.72;;;8.22;100.00
59951;BME280;45812;53.540;9.774;2024-02-21T09:11:29;101470.75;;;8.23;100.00
59951;BME280;45812;53.540;9.774;2024-02-21T09:13:54;101468.66;;;8.27;100.00
59951;BME280;45812;53.540;9.774;2024-02-21T09:16:20;101480.13;;;8.27;100.00
59951;BME280;45812;53.540;9.774;2024-02-21T09:18:45;101479.97;;;8.29;100.00
59951;BME280;45812;53.540;9.774;2024-02-21T09:21:11;101469.50;;;8.27;100.00
59951;BME280;45812;53.540;9.774;2024-02-21T09:23:37;101464.63;;;8.32;100.00
59951;BME280;45812;53.540;9.774;2024-02-21T09:26:02;101461.75;;;8.35;100.00
59951;BME280;45812;53.540;9.774;2024-02-21T09:28:29;101461.94;;;8.43;100.00
59951;BME280;45812;53.540;9.774;2024-02-21T09:30:54;101462.09;;;8.52;100.00
59951;BME280;45812;53.540;9.774;2024-02-21T09:33:20;101452.38;;;8.62;100.00
59951;BME280;45812;53.540;9.774;2024-02-21T09:35:45;101445.88;;;8.75;100.00
59951;BME280;45812;53.540;9.774;2024-02-21T09:38:10;101445.59;;;8.88;100.00
59951;BME280;45812;53.540;9.774;2024-02-21T09:40:35;101445.34;;;8.91;100.00
59951;BME280;45812;53.540;9.774;2024-02-21T09:43:04;101438.09;;;8.93;100.00
59951;BME280;45812;53.540;9.774;2024-02-21T09:45:32;101433.34;;;8.97;100.00
59951;BME280;45812;53.540;9.774;2024-02-21T09:48:19;101434.19;;;8.97;100.00
59951;BME280;45812;53.540;9.774;2024-02-21T09:50:50;101435.16;;;8.96;100.00
59951;BME280;45812;53.540;9.774;2024-02-21T09:53:16;101435.44;;;8.93;100.00
59951;BME280;45812;53.540;9.774;2024-02-21T09:55:43;101441.00;;;8.90;100.00
59951;BME280;45812;53.540;9.774;2024-02-21T09:58:10;101423.94;;;8.83;100.00
59951;BME280;45812;53.540;9.774;2024-02-21T10:00:36;101431.06;;;8.83;100.00
59951;BME280;45812;53.540;9.774;2024-02-21T10:03:02;101427.31;;;8.85;100.00
59951;BME280;45812;53.540;9.774;2024-02-21T10:05:32;101423.81;;;8.85;100.00
59951;BME280;45812;53.540;9.774;2024-02-21T10:07:58;101421.00;;;8.86;100.00
59951;BME280;45812;53.540;9.774;2024-02-21T10:10:23;101422.28;;;8.92;100.00
59951;BME280;45812;53.540;9.774;2024-02-21T10:12:51;101421.06;;;8.96;100.00
59951;BME280;45812;53.540;9.774;2024-02-21T10:15:21;101432.66;;;8.95;100.00
59951;BME280;45812;53.540;9.774;2024-02-21T10:18:10;101417.09;;;8.90;100.00
59951;BME280;45812;53.540;9.774;2024-02-21T10:20:35;101422.16;;;8.93;100.00
59951;BME280;45812;53.540;9.774;2024-02-21T10:23:01;101420.59;;;8.91;100.00
59951;BME280;45812;53.540;9.774;2024-02-21T10:25:28;101414.91;;;8.95;100.00
59951;BME280;45812;53.540;9.774;2024-02-21T10:27:54;101408.47;;;8.98;100.00
59951;BME280;45812;53.540;9.774;2024-02-21T10:30:19;101412.38;;;9.03;100.00
59951;BME280;45812;53.540;9.774;2024-02-21T10:32:49;101412.66;;;9.00;100.00
59951;BME280;45812;53.540;9.774;2024-02-21T10:35:25;101403.72;;;9.01;100.00
59951;BME280;45812;53.540;9.774;2024-02-21T10:37:50;101416.72;;;9.04;100.00
59951;BME280;45812;53.540;9.774;2024-02-21T10:40:20;101416.84;;;9.03;100.00
59951;BME280;45812;53.540;9.774;2024-02-21T10:42:46;101407.78;;;8.96;100.00
59951;BME280;45812;53.540;9.774;2024-02-21T10:45:12;101402.75;;;8.93;100.00
59951;BME280;45812;53.540;9.774;2024-02-21T10:47:38;101396.47;;;8.94;100.00
59951;BME280;45812;53.540;9.774;2024-02-21T10:50:06;101386.91;;;8.91;100.00
59951;BME280;45812;53.540;9.774;2024-02-21T10:52:52;101387.38;;;8.96;100.00
59951;BME280;45812;53.540;9.774;2024-02-21T10:55:25;101386.94;;;9.01;100.00
59951;BME280;45812;53.540;9.774;2024-02-21T10:57:52;101390.88;;;9.06;100.00
59951;BME280;45812;53.540;9.774;2024-02-21T11:00:18;101397.28;;;9.04;100.00
59951;BME280;45812;53.540;9.774;2024-02-21T11:02:44;101387.94;;;9.00;100.00
59951;BME280;45812;53.540;9.774;2024-02-21T11:05:10;101392.25;;;9.01;100.00
59951;BME280;45812;53.540;9.774;2024-02-21T11:07:37;101384.03;;;8.94;100.00
59951;BME280;45812;53.540;9.774;2024-02-21T11:10:02;101396.19;;;8.97;100.00
59951;BME280;45812;53.540;9.774;2024-02-21T11:12:32;101385.84;;;8.94;100.00
59951;BME280;45812;53.540;9.774;2024-02-21T11:15:06;101386.81;;;8.93;100.00
59951;BME280;45812;53.540;9.774;2024-02-21T11:17:32;101385.09;;;8.92;100.00
59951;BME280;45812;53.540;9.774;2024-02-21T11:19:57;101389.84;;;8.88;100.00
59951;BME280;45812;53.540;9.774;2024-02-21T11:22:24;101373.22;;;8.86;100.00
59951;BME280;45812;53.540;9.774;2024-02-21T11:24:54;101368.75;;;8.87;100.00
59951;BME280;45812;53.540;9.774;2024-02-21T11:27:22;101374.91;;;8.87;100.00
59951;BME280;45812;53.540;9.774;2024-02-21T11:29:55;101371.56;;;8.85;100.00
59951;BME280;45812;53.540;9.774;2024-02-21T11:32:21;101367.78;;;8.88;100.00
59951;BME280;45812;53.540;9.774;2024-02-21T11:34:57;101361.22;;;8.92;100.00
59951;BME280;45812;53.540;9.774;2024-02-21T11:37:26;101356.03;;;8.90;100.00
59951;BME280;45812;53.540;9.774;2024-02-21T11:39:52;101357.72;;;8.82;100.00
59951;BME280;45812;53.540;9.774;2024-02-21T11:42:18;101348.78;;;8.83;100.00
59951;BME280;45812;53.540;9.774;2024-02-21T11:44:43;101350.47;;;8.84;100.00
59951;BME280;45812;53.540;9.774;2024-02-21T11:47:09;101343.06;;;8.87;100.00
59951;BME280;45812;53.540;9.774;2024-02-21T11:49:47;101341.94;;;8.90;100.00
59951;BME280;45812;53.540;9.774;2024-02-21T11:52:15;101330.09;;;8.94;100.00
59951;BME280;45812;53.540;9.774;2024-02-21T11:54:41;101326.31;;;8.96;100.00
59951;BME280;45812;53.540;9.774;2024-02-21T11:57:06;101332.31;;;8.98;100.00
59951;BME280;45812;53.540;9.774;2024-02-21T11:59:32;101323.94;;;8.93;100.00
59951;BME280;45812;53.540;9.774;2024-02-21T12:02:01;101319.16;;;8.87;100.00
59951;BME280;45812;53.540;9.774;2024-02-21T12:04:28;101307.16;;;8.83;100.00
59951;BME280;45812;53.540;9.774;2024-02-21T12:06:56;101307.84;;;8.85;100.00
59951;BME280;45812;53.540;9.774;2024-02-21T12:09:23;101316.38;;;8.79;100.00
59951;BME280;45812;53.540;9.774;2024-02-21T12:12:03;101303.94;;;8.79;100.00
59951;BME280;45812;53.540;9.774;2024-02-21T12:14:31;101298.19;;;8.84;100.00
59951;BME280;45812;53.540;9.774;2024-02-21T12:16:56;101296.38;;;8.85;100.00
59951;BME280;45812;53.540;9.774;2024-02-21T12:19:22;101304.75;;;8.90;100.00
59951;BME280;45812;53.540;9.774;2024-02-21T12:21:48;101320.84;;;8.88;100.00
59951;BME280;45812;53.540;9.774;2024-02-21T12:24:20;101303.94;;;8.79;100.00
59951;BME280;45812;53.540;9.774;2024-02-21T12:26:46;101302.13;;;8.80;100.00
59951;BME280;45812;53.540;9.774;2024-02-21T12:29:11;101292.91;;;8.84;100.00
59951;BME280;45812;53.540;9.774;2024-02-21T12:31:37;101293.03;;;8.83;100.00
59951;BME280;45812;53.540;9.774;2024-02-21T12:34:03;101294.28;;;8.78;100.00
59951;BME280;45812;53.540;9.774;2024-02-21T12:36:29;101283.69;;;8.78;100.00
59951;BME280;45812;53.540;9.774;2024-02-21T12:38:55;101280.59;;;8.83;100.00
59951;BME280;45812;53.540;9.774;2024-02-21T12:41:20;101282.56;;;8.81;100.00
59951;BME280;45812;53.540;9.774;2024-02-21T12:43:45;101275.56;;;8.80;100.00